Time;durP1;ratioP1;P1;durP2;ratioP2;P2;SDS_P1;SDS_P2;PMS_P1;PMS_P2;Temp;Humidity;BMP_temperature;BMP_pressure;BME280_temperature;BME280_humidity;BME280_pressure;Samples;Min_cycle;Max_cycle;Signal;HPM_P1;HPM_P2
2022/06/29 00:01:16;;;;;;;10.73;6.22;;;17.00;99.90;;;;;;5039955;28;20037;-59
2022/06/29 00:03:42;;;;;;;11.82;5.85;;;17.10;99.90;;;;;;5039986;28;20038;-59
2022/06/29 00:06:07;;;;;;;9.65;5.00;;;17.10;99.90;;;;;;5041284;28;20049;-59
2022/06/29 00:08:34;;;;;;;8.55;6.00;;;17.00;99.90;;;;;;5039257;28;20125;-57
2022/06/29 00:10:59;;;;;;;10.77;5.50;;;17.00;99.90;;;;;;5041480;28;20060;-58
2022/06/29 00:13:25;;;;;;;11.07;5.82;;;17.00;99.90;;;;;;5039049;28;20049;-59
2022/06/29 00:15:51;;;;;;;8.80;5.80;;;17.00;99.90;;;;;;5041161;28;20053;-59
2022/06/29 00:18:17;;;;;;;11.23;5.35;;;16.90;99.90;;;;;;5039666;28;20229;-59
2022/06/29 00:20:42;;;;;;;9.25;4.95;;;16.90;99.90;;;;;;5039599;28;20053;-59
2022/06/29 00:23:10;;;;;;;9.18;5.22;;;16.90;99.90;;;;;;5020922;28;20080;-59
2022/06/29 00:25:36;;;;;;;8.90;5.38;;;16.90;99.90;;;;;;5019497;28;20057;-58
2022/06/29 00:28:01;;;;;;;7.68;4.90;;;16.90;99.90;;;;;;5021429;28;20054;-59
2022/06/29 00:30:27;;;;;;;7.93;5.28;;;16.90;99.90;;;;;;5019186;28;20045;-58
2022/06/29 00:32:53;;;;;;;8.10;5.18;;;16.90;99.90;;;;;;5021000;28;20065;-58
2022/06/29 00:35:18;;;;;;;8.75;5.22;;;16.90;99.90;;;;;;5019250;28;20056;-58
2022/06/29 00:37:44;;;;;;;9.50;5.40;;;16.90;99.90;;;;;;5020402;28;20049;-59
2022/06/29 00:40:11;;;;;;;10.07;5.18;;;16.90;99.90;;;;;;5020592;28;20505;-58
2022/06/29 00:42:37;;;;;;;10.00;4.88;;;16.90;99.90;;;;;;5019330;28;20199;-58
2022/06/29 00:45:03;;;;;;;9.25;5.28;;;16.90;99.90;;;;;;5020957;28;20045;-58
2022/06/29 00:47:29;;;;;;;8.95;5.00;;;16.80;99.90;;;;;;5018680;28;20038;-59
2022/06/29 00:49:55;;;;;;;8.98;5.32;;;16.80;99.90;;;;;;5020975;28;20069;-58
2022/06/29 00:52:25;;;;;;;8.85;5.65;;;16.80;99.90;;;;;;5032796;28;20065;-57
2022/06/29 00:55:02;;;;;;;8.95;5.53;;;16.70;99.90;;;;;;5040077;28;20578;-58
2022/06/29 00:57:29;;;;;;;10.57;5.35;;;16.70;99.90;;;;;;5040278;28;20069;-58
2022/06/29 00:59:58;;;;;;;9.95;5.78;;;16.70;99.90;;;;;;5038349;28;20042;-58
2022/06/29 01:02:29;;;;;;;9.70;5.88;;;16.70;99.90;;;;;;5040680;28;20051;-58
2022/06/29 01:04:55;;;;;;;8.60;4.95;;;16.70;99.90;;;;;;5038229;28;20052;-58
2022/06/29 01:07:26;;;;;;;8.40;5.47;;;16.70;99.90;;;;;;5040196;28;20046;-57
2022/06/29 01:09:52;;;;;;;9.13;5.82;;;16.70;99.90;;;;;;5039111;28;20046;-57
2022/06/29 01:12:18;;;;;;;9.95;5.82;;;16.60;99.90;;;;;;5038712;28;20563;-58
2022/06/29 01:14:46;;;;;;;9.90;5.13;;;16.60;99.90;;;;;;5039846;28;20045;-58
2022/06/29 01:17:12;;;;;;;10.45;5.60;;;16.60;99.90;;;;;;5038136;28;20456;-58
2022/06/29 01:19:40;;;;;;;9.35;5.97;;;16.50;99.90;;;;;;5040374;28;20102;-58
2022/06/29 01:22:09;;;;;;;10.40;5.90;;;16.50;99.90;;;;;;5024092;28;20053;-58
2022/06/29 01:24:35;;;;;;;9.35;5.68;;;16.50;99.90;;;;;;5020385;28;20037;-58
2022/06/29 01:27:00;;;;;;;9.80;5.90;;;16.50;99.90;;;;;;5018747;28;20072;-58
2022/06/29 01:29:27;;;;;;;11.20;6.40;;;16.40;99.90;;;;;;5019184;28;20042;-58
2022/06/29 01:31:55;;;;;;;10.45;5.60;;;16.40;99.90;;;;;;5019678;28;20795;-58
2022/06/29 01:34:21;;;;;;;8.75;5.18;;;16.40;99.90;;;;;;5018041;28;20042;-55
2022/06/29 01:36:46;;;;;;;9.10;6.10;;;16.40;99.90;;;;;;5020024;28;20053;-58
2022/06/29 01:39:12;;;;;;;10.70;6.70;;;16.40;99.90;;;;;;5016499;28;20046;-58
2022/06/29 01:41:38;;;;;;;9.52;6.68;;;16.30;99.90;;;;;;5019621;28;20088;-57
2022/06/29 01:44:04;;;;;;;12.38;6.43;;;16.40;99.90;;;;;;5000622;28;20030;-58
2022/06/29 01:46:29;;;;;;;9.13;6.07;;;16.30;99.90;;;;;;5017679;28;20041;-58
2022/06/29 01:48:55;;;;;;;9.60;6.00;;;16.30;99.90;;;;;;5019468;28;20053;-58
2022/06/29 01:51:21;;;;;;;8.98;6.10;;;16.30;99.90;;;;;;5023299;28;20071;-59
2022/06/29 01:53:46;;;;;;;10.35;6.20;;;16.30;99.90;;;;;;5039420;28;20045;-58
2022/06/29 01:56:12;;;;;;;10.55;6.47;;;16.20;99.90;;;;;;5035879;28;20065;-58
2022/06/29 01:58:38;;;;;;;10.05;6.22;;;16.30;99.90;;;;;;5039446;28;20045;-58
2022/06/29 02:01:04;;;;;;;9.32;6.03;;;16.30;99.90;;;;;;5037794;28;20049;-58
2022/06/29 02:03:29;;;;;;;10.77;6.80;;;16.30;99.90;;;;;;5038703;28;20045;-58
2022/06/29 02:05:55;;;;;;;10.30;6.30;;;16.20;99.90;;;;;;5038781;28;20041;-58
2022/06/29 02:08:20;;;;;;;9.38;6.13;;;16.20;99.90;;;;;;5037733;28;20111;-58
2022/06/29 02:10:46;;;;;;;13.15;6.68;;;16.20;99.90;;;;;;5038759;28;20053;-58
2022/06/29 02:13:12;;;;;;;9.20;6.60;;;16.30;99.90;;;;;;5036526;28;20084;-58
2022/06/29 02:15:37;;;;;;;14.15;6.38;;;16.20;99.90;;;;;;5037571;28;20037;-58
2022/06/29 02:18:03;;;;;;;11.05;6.70;;;16.20;99.90;;;;;;5037273;28;20073;-58
2022/06/29 02:20:29;;;;;;;12.00;6.22;;;16.20;99.90;;;;;;5037058;28;20420;-58
2022/06/29 02:22:55;;;;;;;11.82;7.38;;;16.20;99.90;;;;;;5019281;28;20053;-58
2022/06/29 02:25:21;;;;;;;13.93;7.65;;;16.20;99.90;;;;;;5017843;28;20041;-58
2022/06/29 02:27:47;;;;;;;9.48;6.65;;;16.30;99.90;;;;;;5019108;28;20065;-58
2022/06/29 02:30:14;;;;;;;9.45;6.75;;;16.20;99.90;;;;;;5015887;28;20092;-58
2022/06/29 02:35:25;;;;;;;10.13;6.90;;;16.20;99.90;;;;;;5017768;28;20112;-58
2022/06/29 02:37:51;;;;;;;9.93;7.45;;;16.20;99.90;;;;;;5017930;28;20046;-59
2022/06/29 02:40:16;;;;;;;11.52;7.35;;;16.30;99.90;;;;;;5018784;28;20050;-59
2022/06/29 02:42:42;;;;;;;10.38;6.90;;;16.30;99.90;;;;;;5017247;28;20560;-58
2022/06/29 02:45:08;;;;;;;10.88;6.32;;;16.30;99.90;;;;;;5018954;28;20092;-58
2022/06/29 02:47:34;;;;;;;13.98;7.10;;;16.30;99.90;;;;;;5015708;28;20066;-58
2022/06/29 02:49:59;;;;;;;9.82;6.28;;;16.30;99.90;;;;;;5019065;28;20077;-58
2022/06/29 02:52:25;;;;;;;13.35;7.90;;;16.30;99.90;;;;;;5030275;28;20076;-58
2022/06/29 02:54:51;;;;;;;12.75;7.15;;;16.30;99.90;;;;;;5038113;28;20064;-58
2022/06/29 02:57:16;;;;;;;11.38;6.88;;;16.40;99.90;;;;;;5038100;28;20111;-57
2022/06/29 02:59:42;;;;;;;11.00;7.50;;;16.30;99.90;;;;;;5037167;28;20549;-58
2022/06/29 03:02:08;;;;;;;11.60;6.28;;;16.30;99.90;;;;;;5038688;28;20387;-58
2022/06/29 03:04:34;;;;;;;10.13;7.03;;;16.30;99.90;;;;;;5036728;28;20631;-58
2022/06/29 03:07:00;;;;;;;9.40;6.78;;;16.40;99.90;;;;;;5038677;28;20046;-58
2022/06/29 03:09:26;;;;;;;8.27;6.43;;;16.30;99.90;;;;;;5036996;28;20049;-58
2022/06/29 03:11:52;;;;;;;12.00;7.18;;;16.30;99.90;;;;;;5037492;28;20060;-59
2022/06/29 03:14:17;;;;;;;9.38;6.45;;;16.30;99.90;;;;;;5037613;28;20045;-58
2022/06/29 03:16:43;;;;;;;10.35;6.97;;;16.30;99.90;;;;;;5037018;28;20041;-59
2022/06/29 03:19:09;;;;;;;9.98;6.82;;;16.30;99.90;;;;;;5038492;28;20105;-59
2022/06/29 03:21:35;;;;;;;10.15;7.30;;;16.30;99.90;;;;;;5029735;28;20065;-59
2022/06/29 03:24:03;;;;;;;8.02;5.75;;;16.30;99.90;;;;;;5037666;28;20057;-58
2022/06/29 03:26:30;;;;;;;10.80;6.32;;;16.20;99.90;;;;;;5039841;28;20883;-58
2022/06/29 03:28:56;;;;;;;10.57;7.75;;;16.30;99.90;;;;;;5041746;28;20117;-58
2022/06/29 03:31:22;;;;;;;12.50;7.40;;;16.30;99.90;;;;;;5041392;28;20064;-58
2022/06/29 03:33:47;;;;;;;10.98;6.82;;;16.30;99.90;;;;;;5040473;28;20413;-59
2022/06/29 03:36:13;;;;;;;10.88;6.13;;;16.20;99.90;;;;;;5041948;28;20041;-59
2022/06/29 03:38:39;;;;;;;9.45;5.90;;;16.30;99.90;;;;;;5038978;28;20037;-59
2022/06/29 03:41:04;;;;;;;9.80;7.35;;;16.30;99.90;;;;;;5041474;28;20041;-58
2022/06/29 03:43:31;;;;;;;10.50;6.70;;;16.30;99.90;;;;;;5039653;28;20045;-59
2022/06/29 03:45:57;;;;;;;9.45;6.90;;;16.30;99.90;;;;;;5040140;28;20509;-59
2022/06/29 03:48:22;;;;;;;9.32;6.93;;;16.20;99.90;;;;;;5040651;28;20049;-59
2022/06/29 03:50:49;;;;;;;9.55;7.05;;;16.30;99.90;;;;;;5040361;28;20038;-59
2022/06/29 03:53:15;;;;;;;10.27;6.68;;;16.20;99.90;;;;;;5041808;28;20076;-58
2022/06/29 03:55:40;;;;;;;9.80;6.90;;;16.30;99.90;;;;;;5039372;28;20046;-58
2022/06/29 03:58:06;;;;;;;10.85;7.55;;;16.30;99.90;;;;;;5040717;28;20038;-59
2022/06/29 04:00:32;;;;;;;10.45;7.65;;;16.20;99.90;;;;;;5039528;28;20064;-59
2022/06/29 04:02:58;;;;;;;10.45;7.95;;;16.30;99.90;;;;;;5041043;28;20034;-58
2022/06/29 04:05:24;;;;;;;10.32;7.00;;;16.30;99.90;;;;;;5039765;28;20042;-59
2022/06/29 04:07:49;;;;;;;12.07;7.80;;;16.20;99.90;;;;;;5040094;28;20046;-59
2022/06/29 04:10:15;;;;;;;11.20;7.65;;;16.20;99.90;;;;;;5039460;28;20045;-56
2022/06/29 04:12:42;;;;;;;10.18;8.13;;;16.20;99.90;;;;;;5039338;28;20080;-58
2022/06/29 04:15:08;;;;;;;10.25;7.80;;;16.20;99.90;;;;;;5041472;28;20053;-59
2022/06/29 04:17:34;;;;;;;9.98;7.50;;;16.20;99.90;;;;;;5039427;28;20064;-59
2022/06/29 04:20:00;;;;;;;10.18;7.95;;;16.20;99.90;;;;;;5041116;28;20603;-58
2022/06/29 04:22:25;;;;;;;10.70;8.25;;;16.30;99.90;;;;;;5039493;28;20041;-59
2022/06/29 04:24:51;;;;;;;9.98;7.97;;;16.30;99.90;;;;;;5040397;28;20045;-58
2022/06/29 04:27:17;;;;;;;11.80;8.10;;;16.30;99.90;;;;;;5040526;28;20119;-59
2022/06/29 04:29:43;;;;;;;11.80;8.35;;;16.40;99.90;;;;;;5037753;28;20045;-59
2022/06/29 04:32:10;;;;;;;11.63;8.05;;;16.40;99.90;;;;;;5040685;28;20819;-58
2022/06/29 04:34:36;;;;;;;10.25;8.27;;;16.30;99.90;;;;;;5038207;28;20473;-58
2022/06/29 04:37:02;;;;;;;11.15;8.45;;;16.40;99.90;;;;;;5039872;28;20038;-59
2022/06/29 04:39:28;;;;;;;10.77;7.97;;;16.50;99.90;;;;;;5039280;28;20038;-59
2022/06/29 04:41:54;;;;;;;12.88;8.45;;;16.50;99.90;;;;;;5040258;28;20109;-59
2022/06/29 04:44:20;;;;;;;16.73;8.88;;;16.60;99.90;;;;;;5039665;28;20049;-59
2022/06/29 04:46:46;;;;;;;11.77;8.50;;;16.70;99.90;;;;;;5039037;28;20037;-58
2022/06/29 04:49:11;;;;;;;10.02;8.00;;;16.80;99.90;;;;;;5040785;28;20113;-58
2022/06/29 04:51:37;;;;;;;10.02;8.18;;;16.80;99.90;;;;;;5038535;28;20167;-59
2022/06/29 04:54:04;;;;;;;10.48;8.38;;;16.80;99.90;;;;;;5040784;28;20045;-59
2022/06/29 04:56:34;;;;;;;12.82;7.70;;;16.80;99.90;;;;;;5038690;28;20038;-59
2022/06/29 04:59:01;;;;;;;13.15;8.80;;;16.90;99.90;;;;;;5040182;28;20083;-59
2022/06/29 05:01:28;;;;;;;10.00;7.68;;;16.90;99.90;;;;;;5039824;28;20069;-59
2022/06/29 05:03:55;;;;;;;12.48;7.93;;;16.90;99.90;;;;;;5038840;28;20057;-59
2022/06/29 05:06:21;;;;;;;9.68;8.13;;;16.90;99.90;;;;;;5040245;28;20123;-58
2022/06/29 05:08:48;;;;;;;10.55;8.05;;;17.00;99.90;;;;;;5037486;28;20049;-59
2022/06/29 05:11:14;;;;;;;9.82;6.93;;;17.00;99.90;;;;;;5035952;28;20058;-57
2022/06/29 05:13:42;;;;;;;10.40;8.18;;;17.10;99.90;;;;;;5034510;28;20046;-58
2022/06/29 05:16:09;;;;;;;12.07;7.82;;;17.10;99.90;;;;;;5035126;28;20071;-58
2022/06/29 05:18:35;;;;;;;12.45;8.07;;;17.10;99.90;;;;;;5034955;28;20088;-58
2022/06/29 05:21:01;;;;;;;9.68;7.82;;;17.20;99.90;;;;;;5035358;28;20054;-58
2022/06/29 05:23:29;;;;;;;10.23;7.60;;;17.20;99.90;;;;;;5036686;28;20051;-59
2022/06/29 05:25:55;;;;;;;12.75;7.57;;;17.20;99.90;;;;;;5034910;28;20053;-58
2022/06/29 05:28:21;;;;;;;8.38;6.93;;;17.30;99.90;;;;;;5036799;28;20542;-60
2022/06/29 05:30:46;;;;;;;10.43;7.30;;;17.40;99.90;;;;;;5034776;28;20045;-59
2022/06/29 05:33:12;;;;;;;10.55;7.78;;;17.40;99.90;;;;;;5036309;28;20053;-58
2022/06/29 05:35:38;;;;;;;9.30;7.50;;;17.50;99.90;;;;;;5035412;28;20033;-59
2022/06/29 05:38:04;;;;;;;9.82;7.13;;;17.50;99.90;;;;;;5035098;28;20041;-58
2022/06/29 05:40:30;;;;;;;10.20;6.35;;;17.60;99.90;;;;;;5034956;28;20075;-58
2022/06/29 05:42:57;;;;;;;9.65;7.32;;;17.60;99.90;;;;;;5034305;28;20129;-58
2022/06/29 05:45:24;;;;;;;9.73;6.82;;;17.70;99.90;;;;;;5036429;28;20049;-58
2022/06/29 05:47:52;;;;;;;9.07;6.80;;;17.80;99.90;;;;;;5028734;28;20148;-58
2022/06/29 05:50:18;;;;;;;9.05;6.88;;;17.90;99.90;;;;;;5025957;28;20083;-59
2022/06/29 05:52:44;;;;;;;11.25;7.03;;;18.30;99.90;;;;;;5026022;28;20457;-58
2022/06/29 05:55:09;;;;;;;9.05;6.85;;;18.40;99.90;;;;;;5033627;28;20056;-58
2022/06/29 05:57:35;;;;;;;10.55;5.80;;;18.50;99.90;;;;;;5030811;28;20049;-58
2022/06/29 06:00:03;;;;;;;8.98;6.70;;;18.60;99.90;;;;;;5033669;28;20068;-58
2022/06/29 06:02:29;;;;;;;10.02;6.25;;;18.70;99.90;;;;;;5030748;28;20085;-59
2022/06/29 06:04:55;;;;;;;9.23;5.70;;;18.70;99.90;;;;;;5022212;28;20484;-59
2022/06/29 06:07:20;;;;;;;8.32;6.28;;;18.70;99.90;;;;;;5016285;28;20413;-58
2022/06/29 06:09:46;;;;;;;7.45;5.20;;;18.80;99.90;;;;;;5014842;28;20050;-58
2022/06/29 06:12:12;;;;;;;7.80;4.97;;;19.00;99.90;;;;;;5014892;28;20072;-59
2022/06/29 06:14:38;;;;;;;10.25;5.38;;;19.20;99.90;;;;;;5016048;28;20060;-59
2022/06/29 06:17:04;;;;;;;9.23;4.82;;;19.30;99.90;;;;;;5014227;28;20049;-59
2022/06/29 06:19:30;;;;;;;9.57;5.32;;;19.40;99.90;;;;;;5016265;28;20073;-59
2022/06/29 06:21:55;;;;;;;8.93;4.95;;;19.40;99.90;;;;;;5024506;28;20718;-58
2022/06/29 06:24:21;;;;;;;7.80;4.38;;;19.50;99.90;;;;;;5035614;28;20079;-58
2022/06/29 06:26:47;;;;;;;9.68;4.80;;;19.60;99.90;;;;;;5033241;28;20045;-58
2022/06/29 06:29:13;;;;;;;6.60;4.10;;;19.80;99.90;;;;;;5034786;28;20517;-57
2022/06/29 06:31:38;;;;;;;8.02;4.22;;;19.80;99.90;;;;;;5035285;28;20154;-57
2022/06/29 06:34:04;;;;;;;7.25;4.25;;;19.90;99.90;;;;;;5033158;28;20053;-58
2022/06/29 06:36:30;;;;;;;8.38;4.00;;;20.00;99.90;;;;;;5034668;28;20064;-59
2022/06/29 06:38:56;;;;;;;9.27;4.60;;;20.20;99.90;;;;;;5033225;28;20049;-59
2022/06/29 06:41:21;;;;;;;9.35;4.30;;;20.20;99.90;;;;;;5035171;28;20049;-59
2022/06/29 06:43:48;;;;;;;10.15;4.15;;;20.20;99.90;;;;;;5033467;28;20850;-58
2022/06/29 06:46:14;;;;;;;8.10;3.83;;;20.30;99.90;;;;;;5034195;28;20045;-59
2022/06/29 06:48:40;;;;;;;9.98;3.60;;;20.20;99.90;;;;;;5034672;28;20037;-58
2022/06/29 06:51:06;;;;;;;9.52;3.35;;;20.40;99.90;;;;;;5033785;28;20043;-58
2022/06/29 06:53:31;;;;;;;6.95;2.78;;;20.50;99.90;;;;;;5035800;28;20057;-58
2022/06/29 06:55:57;;;;;;;7.70;2.88;;;20.60;99.90;;;;;;5033631;28;20105;-59
2022/06/29 06:58:23;;;;;;;6.22;3.13;;;20.70;99.90;;;;;;5035682;28;20053;-58
2022/06/29 07:00:48;;;;;;;6.30;2.60;;;20.80;99.90;;;;;;5037678;28;20041;-58
2022/06/29 07:03:14;;;;;;;9.05;3.75;;;20.80;99.90;;;;;;5039106;28;20569;-58
2022/06/29 07:05:40;;;;;;;6.55;2.97;;;20.90;99.90;;;;;;5038948;28;20033;-59
2022/06/29 07:08:06;;;;;;;7.63;3.25;;;21.00;99.90;;;;;;5037762;28;20603;-58
2022/06/29 07:10:32;;;;;;;6.60;3.00;;;21.00;99.90;;;;;;5038851;28;20045;-58
2022/06/29 07:12:57;;;;;;;7.47;3.90;;;21.00;99.90;;;;;;5036936;28;20053;-58
2022/06/29 07:15:23;;;;;;;9.07;2.67;;;21.10;99.90;;;;;;5038978;28;20056;-58
2022/06/29 07:17:48;;;;;;;7.55;2.72;;;21.30;99.90;;;;;;5036139;28;20121;-58
2022/06/29 07:20:14;;;;;;;6.72;3.10;;;21.30;99.90;;;;;;5038791;28;20763;-58
2022/06/29 07:22:40;;;;;;;6.57;2.70;;;21.40;99.90;;;;;;5019521;28;20173;-59
2022/06/29 07:25:06;;;;;;;7.63;2.78;;;21.50;99.90;;;;;;5018214;28;20172;-59
2022/06/29 07:27:31;;;;;;;7.60;2.70;;;21.60;99.90;;;;;;5019055;28;20041;-59
2022/06/29 07:29:57;;;;;;;7.25;2.35;;;21.50;99.90;;;;;;5017305;28;20045;-59
2022/06/29 07:32:23;;;;;;;7.45;2.75;;;21.70;99.90;;;;;;5017776;28;20054;-59
2022/06/29 07:34:48;;;;;;;5.75;2.58;;;21.70;99.90;;;;;;5016702;28;20323;-59
2022/06/29 07:37:14;;;;;;;7.18;2.63;;;21.90;99.90;;;;;;5019008;28;20064;-59
2022/06/29 07:39:40;;;;;;;9.43;2.97;;;21.80;99.90;;;;;;5017937;28;20038;-60
2022/06/29 07:42:05;;;;;;;6.15;2.20;;;21.80;99.90;;;;;;5016450;28;20144;-59
2022/06/29 07:44:31;;;;;;;7.25;2.28;;;21.90;99.90;;;;;;5016906;28;20068;-58
2022/06/29 07:46:57;;;;;;;8.10;2.42;;;22.10;99.90;;;;;;5016421;28;20044;-59
2022/06/29 07:49:23;;;;;;;7.47;2.30;;;22.10;99.90;;;;;;5019037;28;20042;-59
2022/06/29 07:51:49;;;;;;;6.82;2.45;;;22.10;99.90;;;;;;5026309;28;20099;-59
2022/06/29 07:54:15;;;;;;;7.75;2.53;;;22.30;99.90;;;;;;5038388;28;20061;-59
2022/06/29 07:56:41;;;;;;;6.45;2.15;;;22.40;99.90;;;;;;5036812;28;20532;-59
2022/06/29 07:59:07;;;;;;;6.80;2.30;;;22.50;99.90;;;;;;5037081;28;20052;-60
2022/06/29 08:01:33;;;;;;;5.75;2.53;;;22.50;99.90;;;;;;5030819;28;20146;-59
2022/06/29 08:03:58;;;;;;;6.75;2.63;;;22.60;99.90;;;;;;5026416;28;20037;-60
2022/06/29 08:06:24;;;;;;;5.30;2.08;;;22.70;99.90;;;;;;5027151;28;20104;-59
2022/06/29 08:08:51;;;;;;;5.20;1.80;;;22.80;99.90;;;;;;5025726;28;20046;-59
2022/06/29 08:11:17;;;;;;;5.35;2.00;;;22.90;99.90;;;;;;5025948;28;20117;-59
2022/06/29 08:13:42;;;;;;;5.65;2.47;;;22.90;99.90;;;;;;5025503;28;20053;-59
2022/06/29 08:16:08;;;;;;;5.07;2.35;;;23.00;99.90;;;;;;5033143;28;20493;-59
2022/06/29 08:18:35;;;;;;;7.35;2.72;;;22.90;99.90;;;;;;5038096;28;20549;-59
2022/06/29 08:21:03;;;;;;;6.55;2.45;;;22.90;99.90;;;;;;5035531;28;20042;-59
2022/06/29 08:23:29;;;;;;;6.25;2.50;;;23.00;99.90;;;;;;5021202;28;20406;-60
2022/06/29 08:25:54;;;;;;;6.18;2.20;;;23.10;99.90;;;;;;5018919;28;20056;-59
2022/06/29 08:28:20;;;;;;;6.68;2.40;;;23.00;99.90;;;;;;5021137;28;20054;-59
2022/06/29 08:30:46;;;;;;;6.13;2.25;;;23.00;99.90;;;;;;5019444;28;20414;-59
2022/06/29 08:33:12;;;;;;;4.47;2.15;;;23.30;99.90;;;;;;5020025;28;20436;-59
2022/06/29 08:35:38;;;;;;;6.90;2.25;;;23.30;99.90;;;;;;5019995;28;20041;-58
2022/06/29 08:38:03;;;;;;;6.07;2.13;;;23.40;99.90;;;;;;5019090;28;20053;-59
2022/06/29 08:40:42;;;;;;;5.70;2.38;;;23.50;99.90;;;;;;5018254;28;20054;-60
2022/06/29 08:43:11;;;;;;;6.15;2.03;;;23.50;99.90;;;;;;5018521;28;20030;-59
2022/06/29 08:45:44;;;;;;;4.38;1.80;;;23.50;99.90;;;;;;5020494;28;20042;-59
2022/06/29 08:48:14;;;;;;;8.52;2.40;;;23.50;99.90;;;;;;5019306;28;20046;-58
2022/06/29 08:50:48;;;;;;;5.88;1.95;;;23.60;99.90;;;;;;5019665;28;20037;-59
2022/06/29 08:53:14;;;;;;;5.40;1.77;;;23.60;99.90;;;;;;5040394;28;20076;-58
2022/06/29 08:55:48;;;;;;;5.22;2.08;;;23.70;99.90;;;;;;5038089;28;20053;-59
2022/06/29 08:58:17;;;;;;;7.25;2.00;;;23.60;99.90;;;;;;5038848;28;20049;-59
2022/06/29 09:00:43;;;;;;;5.97;2.08;;;23.70;99.90;;;;;;5037910;28;20042;-58
2022/06/29 09:03:10;;;;;;;5.00;1.90;;;23.80;99.90;;;;;;5039809;28;20048;-60
2022/06/29 09:05:37;;;;;;;4.60;2.00;;;23.80;99.90;;;;;;5039178;28;20460;-58
2022/06/29 09:08:03;;;;;;;6.78;2.10;;;23.80;99.90;;;;;;5038804;28;20067;-59
2022/06/29 09:10:30;;;;;;;6.68;2.30;;;23.70;99.90;;;;;;5039191;28;20641;-59
2022/06/29 09:12:58;;;;;;;5.35;2.38;;;23.70;99.90;;;;;;5037144;28;20049;-59
2022/06/29 09:15:38;;;;;;;6.05;2.20;;;23.50;99.90;;;;;;5038191;28;20067;-59
2022/06/29 09:18:21;;;;;;;6.00;2.20;;;23.80;99.90;;;;;;5037803;28;20049;-59
2022/06/29 09:20:54;;;;;;;5.13;2.40;;;24.20;99.90;;;;;;5037023;28;20072;-59
2022/06/29 09:23:20;;;;;;;6.18;1.85;;;24.30;99.90;;;;;;5018588;28;20069;-59
2022/06/29 09:25:45;;;;;;;4.57;1.92;;;24.50;99.90;;;;;;5017391;28;20049;-59
2022/06/29 09:28:27;;;;;;;6.10;1.75;;;24.40;99.90;;;;;;5019273;28;20045;-60
2022/06/29 09:30:54;;;;;;;;;;;24.50;99.90;;;;;;5017550;28;20049;-60
2022/06/29 09:33:21;;;;;;;7.20;2.40;;;24.60;99.90;;;;;;5018897;28;19976;-60
2022/06/29 09:36:10;;;;;;;6.25;1.88;;;24.80;99.90;;;;;;5019587;28;20052;-59
2022/06/29 09:38:37;;;;;;;5.15;2.08;;;24.80;99.90;;;;;;5017364;28;20034;-60
2022/06/29 09:41:11;;;;;;;6.55;2.17;;;24.80;99.90;;;;;;5020271;28;20065;-60
2022/06/29 09:43:41;;;;;;;5.18;2.17;;;24.90;99.90;;;;;;5017841;28;20105;-59
2022/06/29 09:46:09;;;;;;;4.63;2.25;;;25.00;99.90;;;;;;5019458;28;20470;-59
2022/06/29 09:48:36;;;;;;;4.32;1.70;;;25.10;99.90;;;;;;5019099;28;20094;-59
2022/06/29 09:51:30;;;;;;;5.75;2.20;;;25.30;99.90;;;;;;5020628;28;20041;-60
2022/06/29 09:54:10;;;;;;;4.43;2.10;;;25.20;99.90;;;;;;5039198;28;20060;-59
2022/06/29 09:56:49;;;;;;;5.65;2.20;;;25.20;99.90;;;;;;5037726;28;20104;-59
2022/06/29 10:02:34;;;;;;;5.05;1.85;;;25.30;99.90;;;;;;5028097;28;20038;-59
2022/06/29 10:05:23;;;;;;;5.32;2.20;;;25.30;99.90;;;;;;5033540;28;20038;-57
2022/06/29 10:07:49;;;;;;;4.80;2.25;;;25.30;99.90;;;;;;5038131;28;20041;-58
2022/06/29 10:10:18;;;;;;;5.13;1.88;;;25.30;99.90;;;;;;5038280;28;20103;-57
2022/06/29 10:16:00;;;;;;;5.32;2.30;;;25.20;99.90;;;;;;5038630;28;20134;-59
2022/06/29 10:19:17;;;;;;;5.70;2.10;;;25.40;99.90;;;;;;5038314;28;20073;-59
2022/06/29 10:21:43;;;;;;;5.65;2.10;;;25.30;99.90;;;;;;5004478;28;20058;-60
2022/06/29 10:24:08;;;;;;;5.72;2.10;;;25.60;99.90;;;;;;5019295;28;20137;-60
2022/06/29 10:26:35;;;;;;;6.43;2.10;;;25.70;99.90;;;;;;5017405;28;20053;-60
2022/06/29 10:29:09;;;;;;;5.90;2.03;;;25.80;99.90;;;;;;5018572;28;20057;-60
2022/06/29 10:31:59;;;;;;;5.57;1.90;;;25.80;99.90;;;;;;5018810;28;20049;-59
2022/06/29 10:34:31;;;;;;;4.78;2.03;;;26.00;99.90;;;;;;5016513;28;20057;-60
2022/06/29 10:37:05;;;;;;;5.25;2.15;;;26.10;99.90;;;;;;5018870;28;20052;-60
2022/06/29 10:39:49;;;;;;;5.47;1.80;;;26.10;99.90;;;;;;5035172;28;20050;-59
2022/06/29 10:45:21;;;;;;;6.10;2.15;;;26.40;99.90;;;;;;5037959;28;20435;-59
2022/06/29 10:47:55;;;;;;;4.53;2.25;;;26.30;99.90;;;;;;5036546;28;20065;-59
2022/06/29 10:50:28;;;;;;;5.78;1.98;;;26.30;99.90;;;;;;5037196;28;20041;-59
2022/06/29 10:53:05;;;;;;;6.32;1.90;;;26.30;99.90;;;;;;5037826;28;20049;-58
2022/06/29 10:55:33;;;;;;;4.97;1.90;;;26.50;99.90;;;;;;5036212;28;20565;-59
2022/06/29 10:57:59;;;;;;;5.15;1.90;;;26.50;99.90;;;;;;5037743;28;20101;-59
2022/06/29 11:00:26;;;;;;;5.32;1.92;;;26.50;99.90;;;;;;5035703;28;20523;-59
2022/06/29 11:02:52;;;;;;;4.45;2.00;;;26.50;99.90;;;;;;5038129;28;20045;-59
2022/06/29 11:05:19;;;;;;;5.00;2.10;;;26.60;99.90;;;;;;5037263;28;20406;-58
2022/06/29 11:13:22;;;;;;;5.40;2.20;;;26.50;99.10;;;;;;5036499;28;20057;-59
2022/06/29 11:15:50;;;;;;;4.72;2.40;;;26.60;99.90;;;;;;5037933;28;20097;-59
2022/06/29 11:18:19;;;;;;;4.50;1.83;;;26.80;99.90;;;;;;5037374;28;20041;-59
2022/06/29 11:20:48;;;;;;;4.15;1.90;;;27.00;98.50;;;;;;5034327;28;20533;-59
2022/06/29 11:23:27;;;;;;;5.75;2.05;;;27.10;99.00;;;;;;5016995;28;20065;-59
2022/06/29 11:25:54;;;;;;;5.00;1.85;;;27.20;98.50;;;;;;5015194;28;20042;-58
2022/06/29 11:28:31;;;;;;;5.32;2.00;;;27.30;97.80;;;;;;5018430;28;20547;-58
2022/06/29 11:31:17;;;;;;;5.63;2.00;;;27.20;96.30;;;;;;5017214;28;20050;-59
2022/06/29 11:33:45;;;;;;;6.22;2.03;;;27.10;97.80;;;;;;5016170;28;20134;-58
2022/06/29 11:36:23;;;;;;;4.32;1.83;;;27.30;98.30;;;;;;5017917;28;20118;-58
2022/06/29 11:38:54;;;;;;;4.78;1.63;;;27.40;95.70;;;;;;5016447;28;20050;-58
2022/06/29 11:43:03;;;;;;;4.78;1.90;;;27.30;96.80;;;;;;5017805;28;20592;-59
2022/06/29 11:44:22;;;;;;;4.32;1.52;;;27.30;97.70;;;;;;5017505;28;20061;-58
2022/06/29 11:46:47;;;;;;;3.63;1.60;;;27.60;98.00;;;;;;5018481;28;20113;-58
2022/06/29 11:52:02;;;;;;;5.50;1.85;;;27.50;97.40;;;;;;5030752;28;20475;-59
2022/06/29 11:54:37;;;;;;;4.50;1.90;;;27.40;96.80;;;;;;5041269;28;20083;-59
2022/06/29 11:57:05;;;;;;;5.13;1.60;;;27.70;96.40;;;;;;5041239;28;20072;-58
2022/06/29 11:59:34;;;;;;;5.25;1.70;;;27.70;96.00;;;;;;5039928;28;20060;-59
2022/06/29 12:02:00;;;;;;;2.88;1.30;;;27.90;96.20;;;;;;5040078;28;20565;-58
2022/06/29 12:04:28;;;;;;;5.28;1.60;;;27.90;96.50;;;;;;5039088;28;20529;-59
2022/06/29 12:07:05;;;;;;;7.70;2.00;;;27.90;96.10;;;;;;5041253;28;20464;-58
2022/06/29 12:09:30;;;;;;;3.60;1.40;;;28.00;96.20;;;;;;5038752;28;20045;-60
2022/06/29 12:11:56;;;;;;;4.07;1.30;;;27.90;95.60;;;;;;5038662;28;20062;-59
2022/06/29 12:14:22;;;;;;;3.97;1.55;;;27.90;94.20;;;;;;5039476;28;20156;-59
2022/06/29 12:16:48;;;;;;;3.63;1.67;;;28.10;94.00;;;;;;5039446;28;20041;-60
2022/06/29 12:19:13;;;;;;;4.15;1.80;;;28.00;94.40;;;;;;5040606;28;20125;-60
2022/06/29 12:21:39;;;;;;;6.05;1.75;;;28.20;94.80;;;;;;5028884;28;20092;-59
2022/06/29 12:24:05;;;;;;;3.28;1.30;;;28.20;93.90;;;;;;5019749;28;20034;-59
2022/06/29 12:26:30;;;;;;;3.47;1.50;;;28.00;92.30;;;;;;5019391;28;20053;-59
2022/06/29 12:28:56;;;;;;;3.50;1.48;;;28.00;93.40;;;;;;5019994;28;20046;-59
2022/06/29 12:31:22;;;;;;;4.10;1.75;;;28.10;94.00;;;;;;5020089;28;20042;-57
2022/06/29 12:33:48;;;;;;;4.60;1.80;;;28.30;93.40;;;;;;5018776;28;20045;-60
2022/06/29 12:36:14;;;;;;;5.15;1.60;;;28.30;94.40;;;;;;5021298;28;20049;-59
2022/06/29 12:38:40;;;;;;;6.30;1.88;;;28.30;93.30;;;;;;5018970;28;20072;-60
2022/06/29 12:41:06;;;;;;;7.40;2.08;;;28.20;93.60;;;;;;5020907;28;20500;-58
2022/06/29 12:43:32;;;;;;;4.25;2.03;;;28.20;93.50;;;;;;5019563;28;20046;-59
2022/06/29 12:46:18;;;;;;;4.93;2.20;;;28.40;93.80;;;;;;5018811;28;20521;-59
2022/06/29 12:48:44;;;;;;;4.82;2.15;;;28.00;94.20;;;;;;5020786;28;20060;-58
2022/06/29 12:51:10;;;;;;;5.80;2.30;;;28.10;93.70;;;;;;5022653;28;20037;-59
2022/06/29 12:53:36;;;;;;;7.47;3.17;;;28.10;94.20;;;;;;5040642;28;20053;-58
2022/06/29 12:56:03;;;;;;;6.10;2.35;;;28.00;94.10;;;;;;5036773;28;20077;-59
2022/06/29 12:58:29;;;;;;;7.10;2.67;;;28.00;94.90;;;;;;5039215;28;20069;-59
2022/06/29 13:00:55;;;;;;;6.00;2.30;;;27.90;94.70;;;;;;5039129;28;20041;-59
2022/06/29 13:03:20;;;;;;;5.07;2.40;;;28.00;94.30;;;;;;5039530;28;20046;-59
2022/06/29 13:05:46;;;;;;;5.25;2.67;;;28.20;95.40;;;;;;5039988;28;20055;-59
2022/06/29 13:08:13;;;;;;;4.82;2.50;;;27.90;95.40;;;;;;5038461;28;20041;-59